LICB Airport Information

Runway Information
Runway 05 Length 8070 ft width 148 ft
Elevation 0 ft Threshold 0 ft Heading 0
Runway 23 Length 8070 ft Width 148 ft
Elevation 0 ft Threshold 0 ft Heading 0
Airport Frequencies
Airport Navaids
Airport Weather Information & NOTAM
ADDS - METARS form results

(0704 UTC 23 February 2019)
Data provider http://aviationweather.gov/metar/data/
 
Forecast for: LICB (COMISO , IT)
Text: TAF LICB 230500Z 2306/2315 01010KT 9999 FEW025
Forecast period: 0600 to 1500 UTC 23 February 2019
Forecast type: FROM: standard forecast or significant change
Winds: from the N (10 degrees) at 12 MPH (10 knots; 5.1 m/s)
Visibility: 6 or more miles 10+ km)
Ceiling: at least 12,000 feet AGL
Clouds: few clouds at 2500 feet AGL
Weather: no significant weather forecast for this period